Time;durP1;ratioP1;P1;durP2;ratioP2;P2;SDS_P1;SDS_P2;PMS_P1;PMS_P2;Temp;Humidity;BMP_temperature;BMP_pressure;BME280_temperature;BME280_humidity;BME280_pressure;Samples;Min_cycle;Max_cycle;Signal;HPM_P1;HPM_P2
2022/10/28 00:00:51;;;;;;;8.28;7.45;;;;;;;15.98;57.19;102973.16;1601344;88;21077;-51
2022/10/28 00:03:18;;;;;;;9.05;7.80;;;;;;;15.97;57.30;102970.09;1602838;88;21629;-51
2022/10/28 00:05:44;;;;;;;9.75;7.75;;;;;;;15.97;57.28;102970.09;1605687;88;21089;-51
2022/10/28 00:08:13;;;;;;;11.05;8.83;;;;;;;15.98;57.17;102970.53;1618686;88;21043;-51
2022/10/28 00:10:39;;;;;;;9.08;8.18;;;;;;;15.96;57.05;102968.36;1604807;88;21147;-51
2022/10/28 00:13:07;;;;;;;11.18;8.48;;;;;;;15.95;56.94;102967.92;1615538;88;21095;-51
2022/10/28 00:15:34;;;;;;;10.13;8.00;;;;;;;15.95;56.89;102969.23;1616262;88;21146;-51
2022/10/28 00:18:01;;;;;;;9.30;8.35;;;;;;;15.92;56.93;102969.71;1612141;88;21165;-51
2022/10/28 00:20:30;;;;;;;10.68;8.33;;;;;;;15.91;56.87;102966.67;1598080;88;21587;-51
2022/10/28 00:22:57;;;;;;;9.65;7.53;;;;;;;15.90;56.72;102964.48;1612950;88;21607;-51
2022/10/28 00:25:24;;;;;;;9.80;8.20;;;;;;;15.90;56.72;102968.86;1644869;85;21109;-51
2022/10/28 00:27:51;;;;;;;11.28;8.63;;;;;;;15.89;56.62;102960.10;1671737;85;21513;-51
2022/10/28 00:30:18;;;;;;;11.33;9.43;;;;;;;15.88;56.57;102962.31;1667147;84;21116;-51
2022/10/28 00:32:44;;;;;;;9.85;8.25;;;;;;;15.88;56.66;102958.81;1670825;84;21065;-51
2022/10/28 00:35:11;;;;;;;12.55;8.63;;;;;;;15.88;56.65;102959.69;1671644;84;21534;-51
2022/10/28 00:37:38;;;;;;;9.13;7.95;;;;;;;15.87;56.72;102957.93;1655872;85;21077;-51
2022/10/28 00:40:06;;;;;;;12.33;8.80;;;;;;;15.87;56.87;102963.18;1612747;87;21559;-51
2022/10/28 00:42:33;;;;;;;9.70;8.70;;;;;;;15.87;57.07;102961.87;1649112;85;21621;-51
2022/10/28 00:45:01;;;;;;;8.88;8.05;;;;;;;15.89;57.22;102952.22;1684465;80;21556;-51
2022/10/28 00:47:40;;;;;;;11.68;8.20;;;;;;;15.88;57.20;102949.19;1758106;80;21075;-51
2022/10/28 00:50:31;;;;;;;9.23;8.30;;;;;;;15.88;57.17;102954.44;1740205;82;21039;-51
2022/10/28 00:53:03;;;;;;;12.80;8.50;;;;;;;15.85;57.18;102946.58;1746944;82;21018;-51
2022/10/28 00:55:29;;;;;;;9.83;8.40;;;;;;;15.83;57.38;102950.97;1694270;83;21042;-51
2022/10/28 00:57:57;;;;;;;9.08;8.18;;;;;;;15.83;57.48;102941.78;1695153;83;21062;-51
2022/10/28 01:00:24;;;;;;;11.08;9.08;;;;;;;15.84;57.58;102947.47;1694910;83;21054;-52
2022/10/28 01:02:51;;;;;;;8.95;8.00;;;;;;;15.86;57.51;102950.95;1686806;83;21059;-52
2022/10/28 01:05:21;;;;;;;10.28;8.35;;;;;;;15.87;57.32;102946.11;1683076;84;21217;-51
2022/10/28 01:07:50;;;;;;;10.98;8.63;;;;;;;15.84;57.28;102946.59;1685869;83;21054;-51
2022/10/28 01:10:19;;;;;;;13.70;8.68;;;;;;;15.80;57.35;102939.20;1689186;83;21184;-51
2022/10/28 01:12:51;;;;;;;9.40;8.18;;;;;;;15.78;57.34;102942.71;1708171;83;21581;-51
2022/10/28 01:15:29;;;;;;;9.15;8.25;;;;;;;15.73;57.39;102944.06;1690553;83;21059;-51
2022/10/28 01:18:31;;;;;;;11.78;8.18;;;;;;;15.72;57.55;102941.45;1628371;86;21074;-51
2022/10/28 01:21:35;;;;;;;9.88;8.83;;;;;;;15.69;57.65;102946.28;1623351;85;21116;-51
2022/10/28 01:24:32;;;;;;;11.40;8.50;;;;;;;15.67;57.73;102942.80;1642290;84;21191;-51
2022/10/28 01:27:36;;;;;;;9.40;8.05;;;;;;;15.65;57.75;102938.00;1555980;89;21105;-51
2022/10/28 01:30:11;;;;;;;11.95;9.00;;;;;;;15.62;57.93;102938.02;1603843;87;21026;-51
2022/10/28 01:32:50;;;;;;;9.85;8.45;;;;;;;15.61;58.01;102943.28;1603353;87;21645;-51
2022/10/28 01:35:22;;;;;;;9.48;8.50;;;;;;;15.60;58.11;102942.41;1599531;88;21114;-51
2022/10/28 01:38:07;;;;;;;9.93;8.88;;;;;;;15.60;58.22;102938.47;1591275;88;21147;-51
2022/10/28 01:40:48;;;;;;;10.30;9.18;;;;;;;15.61;58.23;102934.09;1584283;89;21564;-51
2022/10/28 01:43:22;;;;;;;10.38;8.83;;;;;;;15.61;58.22;102939.34;1592788;87;21579;-52
2022/10/28 01:46:02;;;;;;;10.72;9.38;;;;;;;15.60;58.00;102932.38;1591760;89;21134;-51
2022/10/28 01:48:53;;;;;;;11.22;10.00;;;;;;;15.57;58.05;102933.70;1553556;91;21117;-51
2022/10/28 01:51:33;;;;;;;10.85;9.75;;;;;;;15.54;58.16;102939.83;1561485;90;21221;-51
2022/10/28 01:54:01;;;;;;;10.78;9.68;;;;;;;15.52;58.41;102938.97;1554260;91;21117;-51
2022/10/28 01:56:32;;;;;;;11.30;10.00;;;;;;;15.51;58.52;102937.25;1552842;90;21098;-51
2022/10/28 01:59:00;;;;;;;13.05;9.93;;;;;;;15.51;58.55;102939.88;1561214;89;21101;-51
2022/10/28 02:01:28;;;;;;;12.60;10.58;;;;;;;15.50;58.51;102942.05;1580008;90;21077;-51
2022/10/28 02:03:54;;;;;;;14.00;10.60;;;;;;;15.48;58.65;102937.25;1581529;88;21146;-51
2022/10/28 02:06:24;;;;;;;12.85;10.58;;;;;;;15.46;58.73;102936.39;1572702;88;21063;-51
2022/10/28 02:09:39;;;;;;;13.53;11.50;;;;;;;15.44;58.81;102938.16;1553877;90;21555;-51
2022/10/28 02:12:34;;;;;;;11.22;10.08;;;;;;;15.43;59.02;102935.13;1535391;91;21101;-51
2022/10/28 02:15:29;;;;;;;13.60;10.40;;;;;;;15.44;58.87;102939.47;1515505;93;21137;-51
2022/10/28 02:18:24;;;;;;;12.63;11.20;;;;;;;15.45;58.75;102939.92;1543702;93;21082;-51
2022/10/28 02:21:02;;;;;;;13.65;11.25;;;;;;;15.42;58.62;102932.94;1536456;92;21112;-51
2022/10/28 02:23:53;;;;;;;12.53;11.22;;;;;;;15.41;58.44;102933.77;1514340;94;21091;-51
2022/10/28 02:26:36;;;;;;;13.05;11.12;;;;;;;15.39;58.36;102932.06;1471150;96;21108;-51
2022/10/28 02:29:23;;;;;;;14.13;11.12;;;;;;;15.34;58.40;102933.40;1417502;99;21154;-51
2022/10/28 02:31:54;;;;;;;12.68;11.10;;;;;;;15.31;58.54;102936.03;1454693;97;21248;-52
2022/10/28 02:34:28;;;;;;;12.75;11.43;;;;;;;15.27;58.61;102941.33;1459349;95;21204;-51
2022/10/28 02:36:57;;;;;;;12.33;10.98;;;;;;;15.26;58.62;102938.27;1442644;97;21107;-51
2022/10/28 02:39:29;;;;;;;13.40;12.00;;;;;;;15.24;58.63;102933.47;1426966;97;21092;-51
2022/10/28 02:42:03;;;;;;;12.33;11.05;;;;;;;15.22;58.68;102937.85;1453135;97;21112;-51
2022/10/28 02:44:37;;;;;;;12.40;10.95;;;;;;;15.20;58.68;102937.88;1429729;99;21203;-51
2022/10/28 02:47:10;;;;;;;11.35;10.23;;;;;;;15.19;58.69;102939.16;1429297;98;21636;-51
2022/10/28 02:49:38;;;;;;;13.88;11.20;;;;;;;15.19;58.76;102936.55;1438683;99;21149;-51
2022/10/28 02:52:05;;;;;;;14.03;11.03;;;;;;;15.17;58.77;102934.38;1451132;97;21143;-51
2022/10/28 02:54:45;;;;;;;12.88;11.55;;;;;;;15.16;58.77;102930.02;1469501;96;21666;-51
2022/10/28 02:57:15;;;;;;;11.80;10.60;;;;;;;15.16;58.70;102933.95;1475191;96;21169;-51
2022/10/28 02:59:42;;;;;;;13.00;11.70;;;;;;;15.14;58.62;102927.85;1477025;95;21184;-51
2022/10/28 03:02:09;;;;;;;12.75;10.78;;;;;;;15.12;58.64;102926.98;1475515;96;21191;-51
2022/10/28 03:04:37;;;;;;;14.23;11.88;;;;;;;15.09;58.66;102929.62;1446712;97;21205;-52
2022/10/28 03:07:04;;;;;;;12.55;10.70;;;;;;;15.08;58.72;102936.64;1528026;93;21065;-51
2022/10/28 03:09:31;;;;;;;11.95;10.05;;;;;;;15.06;58.88;102934.89;1510516;93;21201;-51
2022/10/28 03:11:58;;;;;;;13.25;11.85;;;;;;;15.05;58.92;102934.45;1518363;93;21133;-51
2022/10/28 03:14:24;;;;;;;13.43;11.10;;;;;;;15.04;58.99;102939.28;1521192;93;21170;-51
2022/10/28 03:16:51;;;;;;;11.60;10.40;;;;;;;15.03;59.03;102942.77;1524538;92;21111;-51
2022/10/28 03:19:17;;;;;;;12.05;10.85;;;;;;;15.04;59.02;102939.28;1521872;93;21209;-51
2022/10/28 03:21:46;;;;;;;12.10;10.90;;;;;;;15.05;58.88;102934.45;1588743;87;21030;-51
2022/10/28 03:24:13;;;;;;;13.58;11.35;;;;;;;15.04;58.88;102940.16;1673978;85;21035;-51
2022/10/28 03:26:40;;;;;;;14.68;11.97;;;;;;;15.02;58.88;102939.73;1678472;84;21104;-51
2022/10/28 03:29:07;;;;;;;13.08;11.08;;;;;;;14.97;59.01;102942.80;1675930;84;21077;-53
2022/10/28 03:31:35;;;;;;;11.75;10.60;;;;;;;14.96;59.16;102945.01;1638747;86;21145;-52
2022/10/28 03:34:02;;;;;;;15.03;11.55;;;;;;;14.96;59.36;102938.45;1696695;82;21039;-51
2022/10/28 03:36:28;;;;;;;14.07;11.43;;;;;;;14.95;59.54;102936.27;1706539;82;21041;-51
2022/10/28 03:38:55;;;;;;;12.47;11.15;;;;;;;14.96;59.70;102934.52;1724987;82;21023;-51
2022/10/28 03:41:22;;;;;;;12.60;11.08;;;;;;;14.94;59.89;102933.66;1711515;82;21038;-51
2022/10/28 03:43:49;;;;;;;14.10;11.55;;;;;;;14.96;59.91;102930.59;1692408;83;21026;-51
2022/10/28 03:46:16;;;;;;;12.98;11.25;;;;;;;14.95;60.01;102930.14;1757924;81;21054;-51
2022/10/28 03:48:43;;;;;;;13.75;11.90;;;;;;;14.96;60.12;102935.83;1749187;81;21078;-51
2022/10/28 03:51:10;;;;;;;12.28;11.05;;;;;;;14.94;60.17;102930.57;1749656;80;21050;-51
2022/10/28 03:53:36;;;;;;;12.50;11.20;;;;;;;14.94;60.07;102929.72;1751139;80;21383;-51
2022/10/28 03:56:03;;;;;;;12.70;11.40;;;;;;;14.94;60.00;102933.19;1758255;80;21600;-51
2022/10/28 03:58:30;;;;;;;12.55;11.10;;;;;;;14.92;59.90;102934.95;1752293;81;21090;-53
2022/10/28 04:00:57;;;;;;;11.80;10.63;;;;;;;14.91;59.84;102932.34;1764784;80;21082;-51
2022/10/28 04:03:24;;;;;;;12.80;11.38;;;;;;;14.89;59.68;102934.98;1764702;80;20988;-51
2022/10/28 04:05:50;;;;;;;15.10;11.50;;;;;;;14.85;59.64;102932.38;1759315;80;21521;-52
2022/10/28 04:08:18;;;;;;;13.00;11.70;;;;;;;14.84;59.75;102941.14;1740194;81;21089;-51
2022/10/28 04:10:46;;;;;;;12.23;10.78;;;;;;;14.83;59.81;102936.76;1760232;80;21098;-51
2022/10/28 04:13:13;;;;;;;12.65;11.22;;;;;;;14.83;59.93;102940.69;1747636;81;21017;-51
2022/10/28 04:15:40;;;;;;;12.75;11.20;;;;;;;14.82;59.89;102945.52;1751453;80;21586;-51
2022/10/28 04:18:08;;;;;;;14.65;11.35;;;;;;;14.81;59.87;102942.02;1758263;80;21543;-51
2022/10/28 04:20:37;;;;;;;13.48;11.15;;;;;;;14.79;59.93;102941.16;1759809;80;21589;-51
2022/10/28 04:23:03;;;;;;;14.50;11.65;;;;;;;14.80;60.06;102942.00;1756281;80;21003;-51
2022/10/28 04:25:31;;;;;;;12.98;11.55;;;;;;;14.80;60.11;102948.55;1764088;80;21019;-51
2022/10/28 04:27:57;;;;;;;12.63;11.25;;;;;;;14.79;60.23;102950.76;1758180;80;21549;-51
2022/10/28 04:30:24;;;;;;;11.85;10.65;;;;;;;14.80;60.30;102955.11;1765524;80;21546;-51
2022/10/28 04:32:50;;;;;;;13.05;10.75;;;;;;;14.80;60.39;102960.34;1751087;81;21066;-52
2022/10/28 04:35:17;;;;;;;12.95;11.68;;;;;;;14.81;60.37;102955.55;1749221;80;21004;-51
2022/10/28 04:37:44;;;;;;;13.10;11.53;;;;;;;14.80;60.34;102959.03;1756249;80;21054;-51
2022/10/28 04:40:11;;;;;;;13.38;11.30;;;;;;;14.79;60.37;102965.17;1755373;80;21089;-51
2022/10/28 04:42:39;;;;;;;11.75;10.55;;;;;;;14.78;60.32;102968.66;1765018;80;21066;-50
2022/10/28 04:45:07;;;;;;;15.20;11.18;;;;;;;14.77;60.24;102965.62;1755723;80;21090;-51
2022/10/28 04:47:34;;;;;;;13.15;11.80;;;;;;;14.76;60.16;102966.05;1755327;80;21058;-51
2022/10/28 04:50:02;;;;;;;12.37;11.20;;;;;;;14.76;60.27;102966.48;1757028;80;21545;-51
2022/10/28 04:52:29;;;;;;;14.83;12.10;;;;;;;14.75;60.36;102968.25;1752122;80;21539;-51
2022/10/28 04:54:58;;;;;;;15.08;11.85;;;;;;;14.78;60.41;102975.20;1752159;80;21050;-51
2022/10/28 04:57:24;;;;;;;14.45;12.23;;;;;;;14.80;60.25;102973.45;1748080;80;21043;-51
2022/10/28 04:59:51;;;;;;;12.40;11.10;;;;;;;14.79;60.20;102977.84;1756722;80;21015;-51
2022/10/28 05:02:18;;;;;;;12.00;10.50;;;;;;;14.78;60.13;102976.52;1761948;80;20995;-51
2022/10/28 05:04:44;;;;;;;12.50;11.28;;;;;;;14.77;60.10;102978.72;1755821;80;21041;-51
2022/10/28 05:07:12;;;;;;;13.15;11.48;;;;;;;14.76;60.09;102984.83;1755979;80;21030;-51
2022/10/28 05:09:39;;;;;;;12.13;10.38;;;;;;;14.76;60.09;102986.14;1751290;81;21565;-51
2022/10/28 05:12:06;;;;;;;11.93;10.72;;;;;;;14.75;60.07;102983.09;1753000;80;21491;-51
2022/10/28 05:14:32;;;;;;;12.88;11.65;;;;;;;14.74;60.11;102980.03;1770628;80;21065;-51
2022/10/28 05:16:59;;;;;;;13.55;11.20;;;;;;;14.75;60.19;102989.66;1768025;80;21621;-52
2022/10/28 05:19:26;;;;;;;12.55;11.25;;;;;;;14.75;60.24;102983.98;1756289;80;21085;-51
2022/10/28 05:21:52;;;;;;;13.22;11.30;;;;;;;14.77;60.32;102991.83;1769414;80;21030;-51
2022/10/28 05:24:19;;;;;;;13.83;11.40;;;;;;;14.79;60.39;102987.45;1783042;80;21498;-51
2022/10/28 05:26:46;;;;;;;12.70;11.40;;;;;;;14.82;60.32;103000.56;1756058;80;21007;-51
2022/10/28 05:29:14;;;;;;;11.35;10.25;;;;;;;14.83;60.30;102997.05;1753080;80;21010;-51
2022/10/28 05:31:41;;;;;;;12.80;11.45;;;;;;;14.85;60.14;102996.59;1759345;80;21590;-51
2022/10/28 05:34:07;;;;;;;12.33;11.08;;;;;;;14.86;59.94;103000.98;1759213;80;21060;-51
2022/10/28 05:36:34;;;;;;;13.05;11.65;;;;;;;14.83;59.95;102995.73;1761614;80;21070;-51
2022/10/28 05:39:01;;;;;;;13.15;11.78;;;;;;;14.84;59.67;103004.05;1752924;80;21041;-51
2022/10/28 05:41:27;;;;;;;15.05;12.37;;;;;;;14.82;59.58;103001.88;1760449;80;21112;-51
2022/10/28 05:43:54;;;;;;;13.08;11.73;;;;;;;14.81;59.68;103006.66;1750882;80;21544;-51
2022/10/28 05:46:21;;;;;;;15.38;13.78;;;;;;;14.84;59.78;103006.67;1757593;81;21047;-51
2022/10/28 05:48:48;;;;;;;14.47;12.33;;;;;;;14.86;59.89;103005.76;1769071;80;21056;-51
2022/10/28 05:51:15;;;;;;;14.55;13.15;;;;;;;14.91;59.85;103010.98;1761345;80;21105;-52
2022/10/28 05:53:43;;;;;;;13.72;12.30;;;;;;;14.98;59.87;103009.63;1763197;80;21625;-51
2022/10/28 05:56:09;;;;;;;16.23;13.35;;;;;;;15.06;59.75;103005.69;1750111;80;21494;-51
2022/10/28 05:58:38;;;;;;;13.62;12.23;;;;;;;15.13;59.65;103007.39;1761934;80;21552;-51
2022/10/28 06:01:08;;;;;;;12.50;11.20;;;;;;;15.18;59.36;103009.56;1754661;80;21066;-51
2022/10/28 06:03:36;;;;;;;15.35;12.53;;;;;;;15.19;59.28;103013.48;1751992;80;21043;-51
2022/10/28 06:06:02;;;;;;;14.80;12.75;;;;;;;15.18;59.18;103006.51;1752320;80;21371;-51
2022/10/28 06:08:29;;;;;;;15.65;12.78;;;;;;;15.19;59.39;103015.22;1759814;80;21380;-51
2022/10/28 06:10:57;;;;;;;14.15;12.73;;;;;;;15.23;59.40;103015.63;1750015;80;21007;-51
2022/10/28 06:13:24;;;;;;;12.47;11.18;;;;;;;15.24;59.30;103017.39;1760539;80;21046;-52
2022/10/28 06:15:53;;;;;;;12.85;11.55;;;;;;;15.25;59.22;103021.31;1764828;80;20960;-51
2022/10/28 06:18:21;;;;;;;13.68;12.00;;;;;;;15.27;59.14;103021.33;1732518;82;21040;-51
2022/10/28 06:20:55;;;;;;;13.60;12.30;;;;;;;15.27;59.15;103018.24;1655940;85;21053;-51
2022/10/28 06:23:22;;;;;;;13.58;12.07;;;;;;;15.30;59.24;103023.92;1731712;82;21090;-51
2022/10/28 06:25:49;;;;;;;12.98;11.50;;;;;;;15.31;59.21;103023.05;1731740;82;21074;-51
2022/10/28 06:28:17;;;;;;;13.13;11.78;;;;;;;15.33;59.29;103032.63;1739076;82;21049;-51
2022/10/28 06:30:44;;;;;;;12.73;11.43;;;;;;;15.34;59.20;103033.52;1731380;82;21188;-51
2022/10/28 06:33:11;;;;;;;12.10;10.93;;;;;;;15.36;59.08;103034.38;1728084;82;21062;-51
2022/10/28 06:35:38;;;;;;;12.60;11.22;;;;;;;15.41;59.06;103031.30;1735652;82;21054;-52
2022/10/28 06:38:05;;;;;;;11.95;10.60;;;;;;;15.43;58.93;103037.45;1716662;81;21035;-51
2022/10/28 06:40:33;;;;;;;11.75;10.55;;;;;;;15.42;58.98;103027.78;1729661;82;21600;-51
2022/10/28 06:43:04;;;;;;;11.10;10.00;;;;;;;15.46;59.04;103032.16;1728636;82;21076;-51
2022/10/28 06:45:33;;;;;;;12.33;10.30;;;;;;;15.50;58.86;103027.33;1732590;82;21027;-51
2022/10/28 06:48:04;;;;;;;11.53;10.50;;;;;;;15.54;58.57;103031.67;1729642;82;21061;-51
2022/10/28 06:50:32;;;;;;;11.68;10.48;;;;;;;15.57;58.53;103033.41;1729243;82;21062;-51
2022/10/28 06:52:59;;;;;;;11.75;9.90;;;;;;;15.62;58.39;103032.49;1722866;82;21116;-51
2022/10/28 06:55:26;;;;;;;10.05;9.05;;;;;;;15.65;58.06;103029.86;1686746;83;21487;-51
2022/10/28 06:57:53;;;;;;;9.70;8.65;;;;;;;15.66;57.84;103032.90;1671443;84;21046;-50
2022/10/28 07:00:20;;;;;;;11.48;9.53;;;;;;;15.67;57.78;103024.16;1666591;84;21075;-51
2022/10/28 07:02:52;;;;;;;9.70;8.78;;;;;;;15.73;57.67;103029.36;1674774;84;21531;-51
2022/10/28 07:05:19;;;;;;;11.33;8.80;;;;;;;15.76;57.58;103031.98;1739907;82;21101;-51
2022/10/28 07:07:45;;;;;;;12.55;9.25;;;;;;;15.81;57.54;103031.49;1726055;82;21581;-51
2022/10/28 07:10:12;;;;;;;10.10;9.10;;;;;;;15.86;57.36;103032.34;1725655;82;21079;-51
2022/10/28 07:12:40;;;;;;;10.98;8.68;;;;;;;15.89;57.12;103027.05;1723386;82;21045;-51
2022/10/28 07:15:09;;;;;;;9.73;8.73;;;;;;;15.90;56.97;103028.81;1716715;82;21053;-51
2022/10/28 07:17:36;;;;;;;11.00;9.90;;;;;;;15.94;56.84;103025.70;1726558;81;21076;-50
2022/10/28 07:20:04;;;;;;;10.95;9.78;;;;;;;15.96;56.72;103031.38;1762046;80;21026;-51
2022/10/28 07:22:31;;;;;;;11.73;9.60;;;;;;;15.98;56.75;103028.73;1760991;80;21477;-51
2022/10/28 07:24:58;;;;;;;10.23;9.13;;;;;;;16.02;56.73;103030.02;1753420;80;21510;-51
2022/10/28 07:27:25;;;;;;;11.85;9.88;;;;;;;16.07;56.49;103029.52;1754697;81;21510;-51
2022/10/28 07:29:51;;;;;;;11.40;9.00;;;;;;;16.10;56.42;103030.83;1761442;80;21031;-51
2022/10/28 07:32:18;;;;;;;10.35;8.45;;;;;;;16.13;56.35;103032.12;1764431;80;21553;-50
2022/10/28 07:34:44;;;;;;;9.70;8.70;;;;;;;16.15;56.28;103026.85;1754680;80;21097;-51
2022/10/28 07:37:11;;;;;;;10.45;8.50;;;;;;;16.18;56.19;103027.69;1773306;80;21054;-51
2022/10/28 07:39:38;;;;;;;10.75;8.95;;;;;;;16.20;56.13;103031.17;1755633;80;21564;-51
2022/10/28 07:42:06;;;;;;;9.65;8.75;;;;;;;16.24;56.22;103026.75;1752829;80;21000;-51
2022/10/28 07:44:33;;;;;;;9.73;8.75;;;;;;;16.26;56.16;103028.92;1758352;80;21506;-51
2022/10/28 07:47:00;;;;;;;10.15;8.68;;;;;;;16.30;56.10;103030.20;1769391;80;21086;-51
2022/10/28 07:49:27;;;;;;;8.63;7.72;;;;;;;16.36;55.92;103031.04;1767007;80;22436;-51
2022/10/28 07:51:53;;;;;;;9.75;8.75;;;;;;;16.39;55.78;103029.67;1758654;80;21042;-51
2022/10/28 07:54:21;;;;;;;9.75;8.60;;;;;;;16.42;55.65;103038.86;1764369;80;21598;-50
2022/10/28 07:56:48;;;;;;;9.05;7.97;;;;;;;16.46;55.72;103036.63;1765096;80;21050;-50
2022/10/28 07:59:14;;;;;;;11.65;8.93;;;;;;;16.50;55.77;103042.31;1755107;80;21096;-50
2022/10/28 08:01:41;;;;;;;9.93;8.90;;;;;;;16.56;55.63;103039.63;1755253;80;21062;-50
2022/10/28 08:04:10;;;;;;;8.08;7.37;;;;;;;16.63;55.53;103036.05;1752167;80;21046;-51
2022/10/28 08:06:37;;;;;;;9.75;8.73;;;;;;;16.70;55.23;103036.39;1757321;80;21007;-51
2022/10/28 08:09:05;;;;;;;9.30;8.28;;;;;;;16.76;55.16;103033.70;1756904;80;21019;-50
2022/10/28 08:11:32;;;;;;;9.78;8.75;;;;;;;16.83;55.11;103044.58;1754435;81;21495;-50
2022/10/28 08:14:01;;;;;;;9.80;7.92;;;;;;;16.91;55.02;103051.94;1766327;80;21054;-51
2022/10/28 08:16:27;;;;;;;8.65;7.80;;;;;;;16.95;54.55;103054.95;1763088;80;21046;-51
2022/10/28 08:18:56;;;;;;;9.40;8.48;;;;;;;16.94;54.21;103055.83;1744881;81;21098;-50
2022/10/28 08:21:23;;;;;;;8.93;8.03;;;;;;;16.96;54.39;103056.72;1767950;80;21499;-50
2022/10/28 08:23:53;;;;;;;9.18;7.92;;;;;;;17.00;54.16;103055.32;1771544;81;21558;-50
2022/10/28 08:26:20;;;;;;;11.75;8.63;;;;;;;17.05;53.88;103051.33;1749650;81;20955;-50
2022/10/28 08:28:47;;;;;;;10.60;9.13;;;;;;;17.10;53.84;103054.78;1762464;80;21128;-50
2022/10/28 08:31:14;;;;;;;10.80;8.60;;;;;;;17.13;53.85;103049.47;1753914;80;21085;-50
2022/10/28 08:33:45;;;;;;;10.08;8.38;;;;;;;17.16;53.90;103053.39;1754970;80;21112;-50
2022/10/28 08:36:15;;;;;;;9.30;8.25;;;;;;;17.22;54.07;103060.32;1755092;81;21006;-50
2022/10/28 08:38:45;;;;;;;8.35;7.45;;;;;;;17.29;54.00;103056.27;1756314;80;21011;-50
2022/10/28 08:41:46;;;;;;;9.20;7.92;;;;;;;17.35;53.56;103060.13;1761079;80;21462;-50
2022/10/28 08:44:47;;;;;;;8.90;8.00;;;;;;;17.42;53.52;103060.48;1755344;80;21065;-50
2022/10/28 08:47:56;;;;;;;8.93;8.03;;;;;;;17.49;53.31;103054.30;1701093;83;21595;-51
2022/10/28 08:50:23;;;;;;;7.87;6.78;;;;;;;17.57;53.07;103057.69;1670775;83;21090;-50
2022/10/28 08:53:06;;;;;;;8.68;7.87;;;;;;;17.63;52.78;103051.02;1696649;83;21102;-51
2022/10/28 08:55:37;;;;;;;7.20;6.50;;;;;;;17.70;52.68;103045.22;1688288;83;21562;-50
2022/10/28 08:58:20;;;;;;;7.85;6.72;;;;;;;17.74;52.64;103045.12;1680906;84;21998;-51
2022/10/28 09:00:52;;;;;;;7.85;6.83;;;;;;;17.79;52.45;103041.98;1649011;85;21610;-51
2022/10/28 09:03:25;;;;;;;6.70;5.92;;;;;;;17.87;52.18;103037.91;1621604;87;21132;-50
2022/10/28 09:06:01;;;;;;;12.35;9.20;;;;;;;17.93;51.87;103034.33;1565654;91;21530;-50
2022/10/28 09:08:32;;;;;;;12.70;9.83;;;;;;;17.98;51.77;103035.09;1518320;93;21146;-50
2022/10/28 09:11:17;;;;;;;16.52;11.60;;;;;;;18.04;51.40;103038.95;1523801;93;21050;-50
2022/10/28 09:13:53;;;;;;;15.03;11.20;;;;;;;18.09;51.16;103039.31;1510709;94;21108;-50
2022/10/28 09:16:46;;;;;;;24.07;18.12;;;;;;;18.18;51.21;103042.22;1520312;93;21549;-50
2022/10/28 09:20:02;;;;;;;12.88;10.25;;;;;;;18.23;51.35;103037.75;1518015;93;21148;-51
2022/10/28 09:22:37;;;;;;;35.73;22.75;;;;;;;18.30;51.19;103034.97;1418882;99;21144;-50
2022/10/28 09:25:38;;;;;;;22.00;15.10;;;;;;;18.34;50.81;103033.17;1456584;98;21598;-51
2022/10/28 09:28:39;;;;;;;14.28;11.15;;;;;;;18.35;50.95;103026.55;1459294;98;21152;-50
2022/10/28 09:31:29;;;;;;;10.37;8.03;;;;;;;18.36;51.38;103027.42;1425253;98;21147;-51
2022/10/28 09:34:08;;;;;;;10.72;7.37;;;;;;;18.38;51.31;103025.63;1429124;100;21242;-50
2022/10/28 09:36:39;;;;;;;7.70;6.85;;;;;;;18.40;51.18;103023.36;1430210;100;21289;-50
2022/10/28 09:39:10;;;;;;;6.35;5.75;;;;;;;18.44;51.09;103021.59;1433926;99;21191;-50
2022/10/28 09:41:37;;;;;;;8.50;6.65;;;;;;;18.49;50.92;103021.04;1431088;99;21161;-51
2022/10/28 09:44:21;;;;;;;7.10;6.40;;;;;;;18.54;50.78;103018.77;1425988;99;21105;-50
2022/10/28 09:46:50;;;;;;;7.67;5.92;;;;;;;18.62;50.65;103017.28;1436684;98;21202;-50
2022/10/28 09:49:21;;;;;;;6.78;6.10;;;;;;;18.68;50.51;103014.52;1446392;98;21075;-50
2022/10/28 09:52:04;;;;;;;9.25;6.55;;;;;;;18.75;50.42;103013.52;1433002;98;21632;-51
2022/10/28 09:54:39;;;;;;;7.40;6.20;;;;;;;18.80;50.05;103009.00;1440610;97;21131;-51
2022/10/28 09:57:05;;;;;;;6.75;5.65;;;;;;;18.84;49.73;103006.72;1454558;96;21169;-50
2022/10/28 09:59:33;;;;;;;9.23;5.85;;;;;;;18.90;49.48;103003.11;1480291;95;21083;-50
2022/10/28 10:02:00;;;;;;;6.87;5.47;;;;;;;18.93;49.21;103005.22;1488836;95;21128;-51
2022/10/28 10:04:30;;;;;;;6.25;4.75;;;;;;;18.96;49.05;103006.46;1528744;92;21142;-50
2022/10/28 10:07:07;;;;;;;5.85;5.03;;;;;;;18.98;48.58;103005.98;1556704;90;21119;-50
2022/10/28 10:09:35;;;;;;;7.30;4.72;;;;;;;18.99;48.72;103005.09;1559350;91;21172;-50
2022/10/28 10:12:08;;;;;;;5.03;4.53;;;;;;;19.06;48.48;103005.36;1551048;91;21102;-51
2022/10/28 10:14:48;;;;;;;5.25;4.67;;;;;;;19.11;48.39;102999.55;1551367;91;21164;-50
2022/10/28 10:17:38;;;;;;;8.38;5.10;;;;;;;19.16;48.21;103000.33;1496655;94;21162;-50
2022/10/28 10:20:10;;;;;;;5.12;4.08;;;;;;;19.22;48.36;103000.20;1458847;97;21166;-50
2022/10/28 10:22:40;;;;;;;4.85;4.28;;;;;;;19.26;48.39;102991.30;1395588;100;21130;-50
2022/10/28 10:25:22;;;;;;;4.33;3.92;;;;;;;19.29;48.35;102991.22;1398238;101;21639;-50
2022/10/28 10:28:03;;;;;;;5.60;4.25;;;;;;;19.31;48.52;102988.09;1407789;101;21133;-51
2022/10/28 10:30:41;;;;;;;5.58;3.98;;;;;;;19.32;48.57;102975.33;1355859;104;21220;-50
2022/10/28 10:33:13;;;;;;;4.17;3.77;;;;;;;19.36;48.62;102979.66;1313455;108;21175;-50
2022/10/28 10:35:39;;;;;;;4.00;3.62;;;;;;;19.41;48.46;102976.92;1326568;105;21683;-50
2022/10/28 10:38:07;;;;;;;5.50;4.42;;;;;;;19.46;48.13;102977.22;1347651;105;21600;-50
2022/10/28 10:40:49;;;;;;;4.60;4.15;;;;;;;19.52;48.20;102968.72;1353929;105;21212;-50
2022/10/28 10:43:31;;;;;;;4.50;4.10;;;;;;;19.56;48.24;102967.77;1355671;105;21203;-51
2022/10/28 10:46:16;;;;;;;4.17;3.72;;;;;;;19.59;47.95;102966.36;1348518;105;21232;-51
2022/10/28 10:48:43;;;;;;;8.10;4.28;;;;;;;19.61;48.10;102960.14;1353750;105;21157;-50
2022/10/28 10:51:24;;;;;;;3.92;3.62;;;;;;;19.64;47.92;102962.69;1358042;104;21153;-50
2022/10/28 10:53:56;;;;;;;3.75;3.37;;;;;;;19.65;47.63;102960.48;1324509;107;21173;-50
2022/10/28 10:56:27;;;;;;;5.33;3.98;;;;;;;19.68;47.26;102958.23;1353667;105;21227;-50
2022/10/28 10:58:58;;;;;;;4.50;4.08;;;;;;;19.68;47.31;102952.47;1331889;106;21141;-50
2022/10/28 11:01:27;;;;;;;3.85;3.55;;;;;;;19.70;47.28;102952.45;1331930;106;21201;-51
2022/10/28 11:04:01;;;;;;;4.40;3.90;;;;;;;19.72;46.81;102955.92;1349519;104;21099;-50
2022/10/28 11:06:31;;;;;;;4.72;3.98;;;;;;;19.73;46.99;102949.72;1383591;102;21175;-50
2022/10/28 11:09:03;;;;;;;5.28;3.80;;;;;;;19.74;47.00;102947.03;1502378;94;21118;-52
2022/10/28 11:11:36;;;;;;;4.35;3.70;;;;;;;19.78;46.90;102945.20;1482467;96;21597;-50
2022/10/28 11:14:13;;;;;;;3.75;3.35;;;;;;;19.82;46.89;102944.22;1491499;95;21080;-51
2022/10/28 11:16:58;;;;;;;3.92;3.25;;;;;;;19.87;46.79;102944.95;1484479;95;21663;-50
2022/10/28 11:19:33;;;;;;;5.53;3.52;;;;;;;19.89;47.11;102945.77;1483292;96;21203;-50
2022/10/28 11:22:34;;;;;;;3.72;2.75;;;;;;;19.93;47.15;102943.46;1464152;96;21081;-50
2022/10/28 11:25:35;;;;;;;3.05;2.40;;;;;;;19.98;47.05;102948.19;1471414;95;21120;-50
2022/10/28 11:28:32;;;;;;;;;;;;;;;20.02;45.19;102947.20;1504733;95;21711;-51
2022/10/28 11:31:33;;;;;;;2.60;2.12;;;;;;;20.03;44.93;102941.02;1494517;95;20157;-50
2022/10/28 11:34:29;;;;;;;3.27;2.87;;;;;;;20.04;44.70;102937.45;1497144;95;21130;-51
2022/10/28 11:37:17;;;;;;;2.37;2.10;;;;;;;20.05;45.06;102940.53;1462033;97;21633;-50
2022/10/28 11:40:14;;;;;;;2.75;2.27;;;;;;;20.06;45.06;102933.00;1451591;98;21674;-50